sensor_id;sensor_type;location;lat;lon;timestamp;temperature;humidity
40702;DHT22;26387;50.114;8.662;2022-09-03T00:00:07;20.20;46.20
40702;DHT22;26387;50.114;8.662;2022-09-03T00:02:43;20.20;46.20
40702;DHT22;26387;50.114;8.662;2022-09-03T00:08:03;20.20;46.40
40702;DHT22;26387;50.114;8.662;2022-09-03T00:13:04;20.10;46.50
40702;DHT22;26387;50.114;8.662;2022-09-03T00:15:33;20.10;46.70
40702;DHT22;26387;50.114;8.662;2022-09-03T00:18:24;20.10;46.70
40702;DHT22;26387;50.114;8.662;2022-09-03T00:20:55;20.10;46.80
40702;DHT22;26387;50.114;8.662;2022-09-03T00:23:26;20.00;46.70
40702;DHT22;26387;50.114;8.662;2022-09-03T00:28:53;19.90;46.90
40702;DHT22;26387;50.114;8.662;2022-09-03T00:31:31;20.00;47.20
40702;DHT22;26387;50.114;8.662;2022-09-03T00:34:03;19.90;47.00
40702;DHT22;26387;50.114;8.662;2022-09-03T00:36:38;19.90;47.10
40702;DHT22;26387;50.114;8.662;2022-09-03T00:39:09;19.90;47.30
40702;DHT22;26387;50.114;8.662;2022-09-03T00:44:50;19.80;47.50
40702;DHT22;26387;50.114;8.662;2022-09-03T00:50:27;19.80;47.60
40702;DHT22;26387;50.114;8.662;2022-09-03T01:07:16;19.70;48.10
40702;DHT22;26387;50.114;8.662;2022-09-03T01:09:56;19.70;48.10
40702;DHT22;26387;50.114;8.662;2022-09-03T01:12:40;19.60;48.10
40702;DHT22;26387;50.114;8.662;2022-09-03T01:18:22;19.60;48.90
40702;DHT22;26387;50.114;8.662;2022-09-03T01:21:19;19.60;48.50
40702;DHT22;26387;50.114;8.662;2022-09-03T01:34:51;19.50;48.70
40702;DHT22;26387;50.114;8.662;2022-09-03T01:37:22;19.40;48.60
40702;DHT22;26387;50.114;8.662;2022-09-03T01:56:18;19.30;49.00
40702;DHT22;26387;50.114;8.662;2022-09-03T01:58:51;19.30;49.10
40702;DHT22;26387;50.114;8.662;2022-09-03T02:01:28;19.30;49.00
40702;DHT22;26387;50.114;8.662;2022-09-03T02:03:54;19.30;49.10
40702;DHT22;26387;50.114;8.662;2022-09-03T02:06:25;19.30;49.20
40702;DHT22;26387;50.114;8.662;2022-09-03T02:08:51;19.40;49.00
40702;DHT22;26387;50.114;8.662;2022-09-03T02:11:17;19.40;49.10
40702;DHT22;26387;50.114;8.662;2022-09-03T02:13:49;19.30;49.00
40702;DHT22;26387;50.114;8.662;2022-09-03T02:16:27;19.30;49.00
40702;DHT22;26387;50.114;8.662;2022-09-03T02:18:57;19.30;49.10
40702;DHT22;26387;50.114;8.662;2022-09-03T02:21:26;19.40;49.10
40702;DHT22;26387;50.114;8.662;2022-09-03T02:23:52;19.40;49.00
40702;DHT22;26387;50.114;8.662;2022-09-03T02:26:21;19.40;49.00
40702;DHT22;26387;50.114;8.662;2022-09-03T02:28:48;19.40;49.10
40702;DHT22;26387;50.114;8.662;2022-09-03T02:31:14;19.40;49.60
40702;DHT22;26387;50.114;8.662;2022-09-03T02:33:43;19.40;48.90
40702;DHT22;26387;50.114;8.662;2022-09-03T02:36:12;19.40;48.90
40702;DHT22;26387;50.114;8.662;2022-09-03T02:38:40;19.50;49.10
40702;DHT22;26387;50.114;8.662;2022-09-03T02:41:06;19.40;49.20
40702;DHT22;26387;50.114;8.662;2022-09-03T02:44:08;19.40;49.40
40702;DHT22;26387;50.114;8.662;2022-09-03T02:46:47;19.40;49.30
40702;DHT22;26387;50.114;8.662;2022-09-03T02:49:14;19.40;49.10
40702;DHT22;26387;50.114;8.662;2022-09-03T02:51:42;19.40;49.00
40702;DHT22;26387;50.114;8.662;2022-09-03T02:54:09;19.50;49.10
40702;DHT22;26387;50.114;8.662;2022-09-03T02:56:35;19.50;49.00
40702;DHT22;26387;50.114;8.662;2022-09-03T02:59:03;19.60;49.00
40702;DHT22;26387;50.114;8.662;2022-09-03T03:01:28;19.60;49.00
40702;DHT22;26387;50.114;8.662;2022-09-03T03:03:54;19.60;48.90
40702;DHT22;26387;50.114;8.662;2022-09-03T03:06:20;19.60;48.90
40702;DHT22;26387;50.114;8.662;2022-09-03T03:08:47;19.60;49.00
40702;DHT22;26387;50.114;8.662;2022-09-03T03:11:13;19.70;49.00
40702;DHT22;26387;50.114;8.662;2022-09-03T03:13:43;19.70;49.00
40702;DHT22;26387;50.114;8.662;2022-09-03T03:16:09;19.70;48.70
40702;DHT22;26387;50.114;8.662;2022-09-03T03:18:34;19.80;48.80
40702;DHT22;26387;50.114;8.662;2022-09-03T03:21:04;19.80;48.80
40702;DHT22;26387;50.114;8.662;2022-09-03T03:23:31;19.70;48.70
40702;DHT22;26387;50.114;8.662;2022-09-03T03:26:01;19.70;48.90
40702;DHT22;26387;50.114;8.662;2022-09-03T03:28:26;19.70;48.90
40702;DHT22;26387;50.114;8.662;2022-09-03T03:30:52;19.80;48.90
40702;DHT22;26387;50.114;8.662;2022-09-03T03:33:18;19.80;48.80
40702;DHT22;26387;50.114;8.662;2022-09-03T03:35:43;19.80;48.80
40702;DHT22;26387;50.114;8.662;2022-09-03T03:38:09;19.90;49.00
40702;DHT22;26387;50.114;8.662;2022-09-03T03:40:39;19.80;48.90
40702;DHT22;26387;50.114;8.662;2022-09-03T03:43:05;19.80;49.10
40702;DHT22;26387;50.114;8.662;2022-09-03T03:45:30;19.80;49.10
40702;DHT22;26387;50.114;8.662;2022-09-03T03:47:57;19.90;49.20
40702;DHT22;26387;50.114;8.662;2022-09-03T03:50:23;19.90;49.00
40702;DHT22;26387;50.114;8.662;2022-09-03T03:52:49;19.90;49.10
40702;DHT22;26387;50.114;8.662;2022-09-03T03:55:15;19.90;49.20
40702;DHT22;26387;50.114;8.662;2022-09-03T03:57:40;19.90;49.20
40702;DHT22;26387;50.114;8.662;2022-09-03T04:00:06;19.90;49.30
40702;DHT22;26387;50.114;8.662;2022-09-03T04:02:32;19.90;49.50
40702;DHT22;26387;50.114;8.662;2022-09-03T04:04:58;19.90;49.40
40702;DHT22;26387;50.114;8.662;2022-09-03T04:07:24;20.00;49.40
40702;DHT22;26387;50.114;8.662;2022-09-03T04:09:50;20.00;49.40
40702;DHT22;26387;50.114;8.662;2022-09-03T04:12:15;20.00;49.40
40702;DHT22;26387;50.114;8.662;2022-09-03T04:14:41;20.00;49.50
40702;DHT22;26387;50.114;8.662;2022-09-03T04:17:07;20.00;49.40
40702;DHT22;26387;50.114;8.662;2022-09-03T04:19:32;20.00;49.50
40702;DHT22;26387;50.114;8.662;2022-09-03T04:21:58;20.00;49.60
40702;DHT22;26387;50.114;8.662;2022-09-03T04:24:24;20.10;49.70
40702;DHT22;26387;50.114;8.662;2022-09-03T04:26:49;20.10;49.40
40702;DHT22;26387;50.114;8.662;2022-09-03T04:29:15;20.10;49.40
40702;DHT22;26387;50.114;8.662;2022-09-03T04:31:42;20.10;49.40
40702;DHT22;26387;50.114;8.662;2022-09-03T04:34:28;20.10;49.50
40702;DHT22;26387;50.114;8.662;2022-09-03T04:36:53;20.10;49.50
40702;DHT22;26387;50.114;8.662;2022-09-03T04:39:19;20.10;49.60
40702;DHT22;26387;50.114;8.662;2022-09-03T04:41:44;20.20;50.20
40702;DHT22;26387;50.114;8.662;2022-09-03T04:44:10;20.20;49.70
40702;DHT22;26387;50.114;8.662;2022-09-03T04:46:36;20.20;49.60
40702;DHT22;26387;50.114;8.662;2022-09-03T04:49:02;20.20;49.60
40702;DHT22;26387;50.114;8.662;2022-09-03T04:51:28;20.20;49.80
40702;DHT22;26387;50.114;8.662;2022-09-03T04:53:59;20.20;49.60
40702;DHT22;26387;50.114;8.662;2022-09-03T04:56:27;20.30;49.60
40702;DHT22;26387;50.114;8.662;2022-09-03T04:59:00;20.30;49.60
40702;DHT22;26387;50.114;8.662;2022-09-03T05:01:29;20.20;49.60
40702;DHT22;26387;50.114;8.662;2022-09-03T05:03:55;20.10;49.80
40702;DHT22;26387;50.114;8.662;2022-09-03T05:06:22;20.20;50.00
40702;DHT22;26387;50.114;8.662;2022-09-03T05:08:50;20.20;50.00
40702;DHT22;26387;50.114;8.662;2022-09-03T05:11:17;20.20;50.00
40702;DHT22;26387;50.114;8.662;2022-09-03T05:13:46;20.20;50.10
40702;DHT22;26387;50.114;8.662;2022-09-03T05:16:13;20.30;50.10
40702;DHT22;26387;50.114;8.662;2022-09-03T05:18:38;20.30;50.10
40702;DHT22;26387;50.114;8.662;2022-09-03T05:21:08;20.30;50.10
40702;DHT22;26387;50.114;8.662;2022-09-03T05:23:39;20.30;50.00
40702;DHT22;26387;50.114;8.662;2022-09-03T05:26:07;20.30;50.10
40702;DHT22;26387;50.114;8.662;2022-09-03T05:28:34;20.30;50.20
40702;DHT22;26387;50.114;8.662;2022-09-03T05:31:09;20.30;50.20
40702;DHT22;26387;50.114;8.662;2022-09-03T05:33:36;20.30;50.30
40702;DHT22;26387;50.114;8.662;2022-09-03T05:36:08;20.30;50.60
40702;DHT22;26387;50.114;8.662;2022-09-03T05:38:35;20.30;50.20
40702;DHT22;26387;50.114;8.662;2022-09-03T05:41:02;20.30;50.40
40702;DHT22;26387;50.114;8.662;2022-09-03T05:43:28;20.30;50.40
40702;DHT22;26387;50.114;8.662;2022-09-03T05:46:02;20.40;50.20
40702;DHT22;26387;50.114;8.662;2022-09-03T05:48:29;20.50;50.30
40702;DHT22;26387;50.114;8.662;2022-09-03T05:51:05;20.50;50.40
40702;DHT22;26387;50.114;8.662;2022-09-03T05:53:34;20.50;50.60
40702;DHT22;26387;50.114;8.662;2022-09-03T05:56:02;20.50;50.20
40702;DHT22;26387;50.114;8.662;2022-09-03T05:58:32;20.60;50.20
40702;DHT22;26387;50.114;8.662;2022-09-03T06:00:59;20.60;50.80
40702;DHT22;26387;50.114;8.662;2022-09-03T06:03:25;20.60;50.30
40702;DHT22;26387;50.114;8.662;2022-09-03T06:05:52;20.60;50.40
40702;DHT22;26387;50.114;8.662;2022-09-03T06:08:19;20.60;50.40
40702;DHT22;26387;50.114;8.662;2022-09-03T06:10:45;20.60;50.40
40702;DHT22;26387;50.114;8.662;2022-09-03T06:13:11;20.60;50.60
40702;DHT22;26387;50.114;8.662;2022-09-03T06:15:37;20.60;50.60
40702;DHT22;26387;50.114;8.662;2022-09-03T06:18:03;20.50;50.80
40702;DHT22;26387;50.114;8.662;2022-09-03T06:20:29;20.50;51.10
40702;DHT22;26387;50.114;8.662;2022-09-03T06:22:56;20.50;51.20
40702;DHT22;26387;50.114;8.662;2022-09-03T06:25:22;20.50;51.00
40702;DHT22;26387;50.114;8.662;2022-09-03T06:27:48;20.60;51.10
40702;DHT22;26387;50.114;8.662;2022-09-03T06:30:14;20.50;51.30
40702;DHT22;26387;50.114;8.662;2022-09-03T06:32:47;20.50;51.50
40702;DHT22;26387;50.114;8.662;2022-09-03T06:35:17;20.40;51.50
40702;DHT22;26387;50.114;8.662;2022-09-03T06:37:42;20.40;51.80
40702;DHT22;26387;50.114;8.662;2022-09-03T06:40:09;20.30;51.80
40702;DHT22;26387;50.114;8.662;2022-09-03T06:42:39;20.20;52.30
40702;DHT22;26387;50.114;8.662;2022-09-03T06:45:06;20.20;54.00
40702;DHT22;26387;50.114;8.662;2022-09-03T06:47:32;20.10;54.00
40702;DHT22;26387;50.114;8.662;2022-09-03T06:49:58;20.00;54.20
40702;DHT22;26387;50.114;8.662;2022-09-03T06:52:25;20.00;54.70
40702;DHT22;26387;50.114;8.662;2022-09-03T06:54:51;20.00;54.40
40702;DHT22;26387;50.114;8.662;2022-09-03T06:57:16;20.00;54.60
40702;DHT22;26387;50.114;8.662;2022-09-03T06:59:42;20.00;55.60
40702;DHT22;26387;50.114;8.662;2022-09-03T07:02:09;20.00;55.50
40702;DHT22;26387;50.114;8.662;2022-09-03T07:04:34;20.00;54.80
40702;DHT22;26387;50.114;8.662;2022-09-03T07:07:00;19.90;54.50
40702;DHT22;26387;50.114;8.662;2022-09-03T07:09:26;19.80;55.60
40702;DHT22;26387;50.114;8.662;2022-09-03T07:11:52;19.90;56.10
40702;DHT22;26387;50.114;8.662;2022-09-03T07:14:19;20.00;56.50
40702;DHT22;26387;50.114;8.662;2022-09-03T07:16:47;20.00;56.50
40702;DHT22;26387;50.114;8.662;2022-09-03T07:19:13;20.00;56.50
40702;DHT22;26387;50.114;8.662;2022-09-03T07:21:39;20.10;57.30
40702;DHT22;26387;50.114;8.662;2022-09-03T07:24:06;20.10;57.50
40702;DHT22;26387;50.114;8.662;2022-09-03T07:26:34;20.00;56.60
40702;DHT22;26387;50.114;8.662;2022-09-03T07:29:00;20.00;57.10
40702;DHT22;26387;50.114;8.662;2022-09-03T07:31:29;20.00;57.20
40702;DHT22;26387;50.114;8.662;2022-09-03T07:33:57;20.00;57.30
40702;DHT22;26387;50.114;8.662;2022-09-03T07:36:26;20.00;56.80
40702;DHT22;26387;50.114;8.662;2022-09-03T07:38:56;19.80;57.80
40702;DHT22;26387;50.114;8.662;2022-09-03T07:41:23;19.70;58.20
40702;DHT22;26387;50.114;8.662;2022-09-03T07:43:50;19.60;59.60
40702;DHT22;26387;50.114;8.662;2022-09-03T07:46:22;19.60;59.10
40702;DHT22;26387;50.114;8.662;2022-09-03T07:48:55;19.70;59.50
40702;DHT22;26387;50.114;8.662;2022-09-03T07:51:24;19.70;60.20
40702;DHT22;26387;50.114;8.662;2022-09-03T07:53:52;19.70;59.00
40702;DHT22;26387;50.114;8.662;2022-09-03T07:56:18;19.70;59.10
40702;DHT22;26387;50.114;8.662;2022-09-03T07:58:44;19.70;59.60
40702;DHT22;26387;50.114;8.662;2022-09-03T08:01:15;19.70;59.90
40702;DHT22;26387;50.114;8.662;2022-09-03T08:03:46;19.70;59.80
40702;DHT22;26387;50.114;8.662;2022-09-03T08:06:13;19.70;59.80
40702;DHT22;26387;50.114;8.662;2022-09-03T08:08:39;19.60;59.50
40702;DHT22;26387;50.114;8.662;2022-09-03T08:11:10;19.60;60.70
40702;DHT22;26387;50.114;8.662;2022-09-03T08:13:44;19.60;60.20
40702;DHT22;26387;50.114;8.662;2022-09-03T08:16:11;19.50;62.00
40702;DHT22;26387;50.114;8.662;2022-09-03T08:18:37;19.50;62.00
40702;DHT22;26387;50.114;8.662;2022-09-03T08:21:10;19.40;63.30
40702;DHT22;26387;50.114;8.662;2022-09-03T08:23:39;19.40;64.10
40702;DHT22;26387;50.114;8.662;2022-09-03T08:26:05;19.60;65.80
40702;DHT22;26387;50.114;8.662;2022-09-03T08:28:32;19.50;65.70
40702;DHT22;26387;50.114;8.662;2022-09-03T08:31:04;19.60;66.50
40702;DHT22;26387;50.114;8.662;2022-09-03T08:33:30;19.60;67.40
40702;DHT22;26387;50.114;8.662;2022-09-03T08:36:12;19.50;67.00
40702;DHT22;26387;50.114;8.662;2022-09-03T08:38:41;19.70;69.50
40702;DHT22;26387;50.114;8.662;2022-09-03T08:41:16;19.80;70.60
40702;DHT22;26387;50.114;8.662;2022-09-03T08:46:16;19.90;71.00
40702;DHT22;26387;50.114;8.662;2022-09-03T08:48:42;19.90;69.40
40702;DHT22;26387;50.114;8.662;2022-09-03T08:51:09;19.90;69.40
40702;DHT22;26387;50.114;8.662;2022-09-03T08:53:43;20.00;71.60
40702;DHT22;26387;50.114;8.662;2022-09-03T08:56:20;20.10;70.80
40702;DHT22;26387;50.114;8.662;2022-09-03T09:04:12;20.30;70.90
40702;DHT22;26387;50.114;8.662;2022-09-03T09:07:10;20.40;69.70
40702;DHT22;26387;50.114;8.662;2022-09-03T09:10:09;20.50;68.20
40702;DHT22;26387;50.114;8.662;2022-09-03T09:12:59;20.60;70.00
40702;DHT22;26387;50.114;8.662;2022-09-03T09:23:43;21.30;66.00
40702;DHT22;26387;50.114;8.662;2022-09-03T09:26:16;21.60;64.70
40702;DHT22;26387;50.114;8.662;2022-09-03T09:28:44;21.90;64.70
40702;DHT22;26387;50.114;8.662;2022-09-03T09:31:14;21.80;61.00
40702;DHT22;26387;50.114;8.662;2022-09-03T09:33:40;21.80;63.10
40702;DHT22;26387;50.114;8.662;2022-09-03T09:36:09;21.90;63.80
40702;DHT22;26387;50.114;8.662;2022-09-03T09:38:38;22.10;63.40
40702;DHT22;26387;50.114;8.662;2022-09-03T09:41:20;21.90;62.90
40702;DHT22;26387;50.114;8.662;2022-09-03T09:43:59;21.80;62.90
40702;DHT22;26387;50.114;8.662;2022-09-03T09:46:37;21.80;64.40
40702;DHT22;26387;50.114;8.662;2022-09-03T09:49:17;21.70;62.90
40702;DHT22;26387;50.114;8.662;2022-09-03T09:51:46;21.70;63.70
40702;DHT22;26387;50.114;8.662;2022-09-03T09:54:17;21.60;62.70
40702;DHT22;26387;50.114;8.662;2022-09-03T09:56:45;21.50;63.70
40702;DHT22;26387;50.114;8.662;2022-09-03T09:59:13;21.40;65.20
40702;DHT22;26387;50.114;8.662;2022-09-03T10:01:41;21.40;65.10
40702;DHT22;26387;50.114;8.662;2022-09-03T10:04:24;21.40;65.50
40702;DHT22;26387;50.114;8.662;2022-09-03T10:06:54;21.30;65.00
40702;DHT22;26387;50.114;8.662;2022-09-03T10:09:26;21.30;65.90
40702;DHT22;26387;50.114;8.662;2022-09-03T10:14:44;21.20;65.90
40702;DHT22;26387;50.114;8.662;2022-09-03T10:21:01;21.40;65.20
40702;DHT22;26387;50.114;8.662;2022-09-03T10:23:25;21.40;64.80
40702;DHT22;26387;50.114;8.662;2022-09-03T10:26:01;21.30;65.70
40702;DHT22;26387;50.114;8.662;2022-09-03T10:28:33;21.30;64.80
40702;DHT22;26387;50.114;8.662;2022-09-03T10:39:20;22.20;63.60
40702;DHT22;26387;50.114;8.662;2022-09-03T10:41:57;22.30;61.90
40702;DHT22;26387;50.114;8.662;2022-09-03T10:50:18;23.00;59.60
40702;DHT22;26387;50.114;8.662;2022-09-03T11:10:44;23.30;58.40
40702;DHT22;26387;50.114;8.662;2022-09-03T11:13:23;24.60;56.30
40702;DHT22;26387;50.114;8.662;2022-09-03T11:16:27;24.60;56.10
40702;DHT22;26387;50.114;8.662;2022-09-03T11:18:54;24.70;56.40
40702;DHT22;26387;50.114;8.662;2022-09-03T11:21:25;24.90;56.10
40702;DHT22;26387;50.114;8.662;2022-09-03T11:24:21;24.90;56.00
40702;DHT22;26387;50.114;8.662;2022-09-03T11:26:54;24.80;56.00
40702;DHT22;26387;50.114;8.662;2022-09-03T11:29:34;24.60;55.60
40702;DHT22;26387;50.114;8.662;2022-09-03T11:32:17;24.80;56.20
40702;DHT22;26387;50.114;8.662;2022-09-03T11:34:48;25.00;56.40
40702;DHT22;26387;50.114;8.662;2022-09-03T11:37:24;25.10;56.50
40702;DHT22;26387;50.114;8.662;2022-09-03T11:40:05;25.20;56.70
40702;DHT22;26387;50.114;8.662;2022-09-03T11:42:37;24.90;55.20
40702;DHT22;26387;50.114;8.662;2022-09-03T11:47:57;25.60;55.70
40702;DHT22;26387;50.114;8.662;2022-09-03T11:50:31;26.00;54.60
40702;DHT22;26387;50.114;8.662;2022-09-03T12:36:16;26.30;53.60
40702;DHT22;26387;50.114;8.662;2022-09-03T12:38:42;26.80;52.20
40702;DHT22;26387;50.114;8.662;2022-09-03T13:47:51;26.70;51.60
40702;DHT22;26387;50.114;8.662;2022-09-03T14:27:09;35.70;37.80
40702;DHT22;26387;50.114;8.662;2022-09-03T14:29:35;33.10;40.50
40702;DHT22;26387;50.114;8.662;2022-09-03T14:44:56;29.50;44.90
40702;DHT22;26387;50.114;8.662;2022-09-03T14:52:38;28.10;47.30
40702;DHT22;26387;50.114;8.662;2022-09-03T14:57:47;27.50;48.80
40702;DHT22;26387;50.114;8.662;2022-09-03T15:00:15;27.80;48.60
40702;DHT22;26387;50.114;8.662;2022-09-03T15:17:44;39.30;34.80
40702;DHT22;26387;50.114;8.662;2022-09-03T15:25:22;41.20;32.20
40702;DHT22;26387;50.114;8.662;2022-09-03T15:33:00;38.40;33.90
40702;DHT22;26387;50.114;8.662;2022-09-03T15:37:54;34.20;38.50
40702;DHT22;26387;50.114;8.662;2022-09-03T15:40:45;32.40;39.90
40702;DHT22;26387;50.114;8.662;2022-09-03T15:43:29;32.10;40.80
40702;DHT22;26387;50.114;8.662;2022-09-03T15:50:54;30.10;44.30
40702;DHT22;26387;50.114;8.662;2022-09-03T15:53:38;29.60;45.10
40702;DHT22;26387;50.114;8.662;2022-09-03T15:58:41;28.90;46.50
40702;DHT22;26387;50.114;8.662;2022-09-03T16:06:32;28.20;48.40
40702;DHT22;26387;50.114;8.662;2022-09-03T16:09:06;28.20;48.80
40702;DHT22;26387;50.114;8.662;2022-09-03T16:16:51;27.50;50.50
40702;DHT22;26387;50.114;8.662;2022-09-03T16:19:23;27.30;51.00
40702;DHT22;26387;50.114;8.662;2022-09-03T16:25:09;27.10;51.30
40702;DHT22;26387;50.114;8.662;2022-09-03T16:28:23;27.20;51.60
40702;DHT22;26387;50.114;8.662;2022-09-03T16:35:34;27.00;52.50
40702;DHT22;26387;50.114;8.662;2022-09-03T16:45:29;26.50;53.60
40702;DHT22;26387;50.114;8.662;2022-09-03T16:50:50;26.20;54.10
40702;DHT22;26387;50.114;8.662;2022-09-03T16:58:50;25.80;55.50
40702;DHT22;26387;50.114;8.662;2022-09-03T17:04:02;25.50;56.40
40702;DHT22;26387;50.114;8.662;2022-09-03T17:06:33;25.50;56.60
40702;DHT22;26387;50.114;8.662;2022-09-03T17:19:44;25.30;57.10
40702;DHT22;26387;50.114;8.662;2022-09-03T17:24:42;24.90;57.80
40702;DHT22;26387;50.114;8.662;2022-09-03T17:27:21;24.80;57.90
40702;DHT22;26387;50.114;8.662;2022-09-03T17:55:07;23.70;59.20
40702;DHT22;26387;50.114;8.662;2022-09-03T17:57:45;23.60;60.10
40702;DHT22;26387;50.114;8.662;2022-09-03T18:00:21;23.60;60.60
40702;DHT22;26387;50.114;8.662;2022-09-03T18:05:22;23.40;61.40
40702;DHT22;26387;50.114;8.662;2022-09-03T18:07:50;23.30;61.50
40702;DHT22;26387;50.114;8.662;2022-09-03T18:10:18;23.30;61.70
40702;DHT22;26387;50.114;8.662;2022-09-03T18:15:27;23.30;61.60
40702;DHT22;26387;50.114;8.662;2022-09-03T18:17:56;23.30;62.00
40702;DHT22;26387;50.114;8.662;2022-09-03T18:20:22;23.30;62.00
40702;DHT22;26387;50.114;8.662;2022-09-03T18:23:13;23.20;62.40
40702;DHT22;26387;50.114;8.662;2022-09-03T18:26:00;23.10;63.00
40702;DHT22;26387;50.114;8.662;2022-09-03T18:28:51;23.10;63.80
40702;DHT22;26387;50.114;8.662;2022-09-03T18:31:36;23.00;64.40
40702;DHT22;26387;50.114;8.662;2022-09-03T18:34:24;22.80;64.90
40702;DHT22;26387;50.114;8.662;2022-09-03T18:37:10;22.80;65.00
40702;DHT22;26387;50.114;8.662;2022-09-03T18:39:54;22.70;65.20
40702;DHT22;26387;50.114;8.662;2022-09-03T18:45:45;22.70;66.00
40702;DHT22;26387;50.114;8.662;2022-09-03T18:48:35;22.60;66.20
40702;DHT22;26387;50.114;8.662;2022-09-03T18:56:52;22.50;67.70
40702;DHT22;26387;50.114;8.662;2022-09-03T19:05:18;22.50;67.50
40702;DHT22;26387;50.114;8.662;2022-09-03T19:08:13;22.50;67.30
40702;DHT22;26387;50.114;8.662;2022-09-03T19:11:05;22.60;66.90
40702;DHT22;26387;50.114;8.662;2022-09-03T19:13:51;22.50;66.70
40702;DHT22;26387;50.114;8.662;2022-09-03T19:22:41;22.50;66.20
40702;DHT22;26387;50.114;8.662;2022-09-03T19:25:26;22.40;66.30
40702;DHT22;26387;50.114;8.662;2022-09-03T19:28:18;22.40;66.90
40702;DHT22;26387;50.114;8.662;2022-09-03T19:36:50;22.20;69.00
40702;DHT22;26387;50.114;8.662;2022-09-03T19:51:44;22.10;69.70
40702;DHT22;26387;50.114;8.662;2022-09-03T19:54:32;22.00;69.80
40702;DHT22;26387;50.114;8.662;2022-09-03T19:57:17;22.00;70.00
40702;DHT22;26387;50.114;8.662;2022-09-03T20:00:02;22.00;69.80
40702;DHT22;26387;50.114;8.662;2022-09-03T20:02:47;22.00;70.10
40702;DHT22;26387;50.114;8.662;2022-09-03T20:05:31;21.90;69.60
40702;DHT22;26387;50.114;8.662;2022-09-03T20:08:16;21.80;70.20
40702;DHT22;26387;50.114;8.662;2022-09-03T20:11:00;21.70;70.70
40702;DHT22;26387;50.114;8.662;2022-09-03T20:13:26;21.70;71.20
40702;DHT22;26387;50.114;8.662;2022-09-03T20:16:05;21.60;71.30
40702;DHT22;26387;50.114;8.662;2022-09-03T20:23:53;21.70;71.10
40702;DHT22;26387;50.114;8.662;2022-09-03T20:26:39;21.70;71.10
40702;DHT22;26387;50.114;8.662;2022-09-03T20:34:56;21.60;71.70
40702;DHT22;26387;50.114;8.662;2022-09-03T20:37:30;21.50;72.00
40702;DHT22;26387;50.114;8.662;2022-09-03T20:47:47;21.30;73.10
40702;DHT22;26387;50.114;8.662;2022-09-03T20:55:48;21.20;74.10
40702;DHT22;26387;50.114;8.662;2022-09-03T20:58:20;21.20;74.40
40702;DHT22;26387;50.114;8.662;2022-09-03T21:01:00;21.20;74.60
40702;DHT22;26387;50.114;8.662;2022-09-03T21:03:41;21.20;75.20
40702;DHT22;26387;50.114;8.662;2022-09-03T21:06:53;21.10;75.40
40702;DHT22;26387;50.114;8.662;2022-09-03T21:14:17;21.20;75.90
40702;DHT22;26387;50.114;8.662;2022-09-03T21:19:20;21.30;76.30
40702;DHT22;26387;50.114;8.662;2022-09-03T21:24:16;21.20;76.50
40702;DHT22;26387;50.114;8.662;2022-09-03T21:26:42;21.20;76.70
40702;DHT22;26387;50.114;8.662;2022-09-03T21:29:12;21.20;77.00
40702;DHT22;26387;50.114;8.662;2022-09-03T21:31:47;21.10;77.10
40702;DHT22;26387;50.114;8.662;2022-09-03T21:34:23;21.10;77.30
40702;DHT22;26387;50.114;8.662;2022-09-03T21:36:49;21.10;78.20
40702;DHT22;26387;50.114;8.662;2022-09-03T21:41:48;21.00;78.00
40702;DHT22;26387;50.114;8.662;2022-09-03T21:44:16;21.10;78.20
40702;DHT22;26387;50.114;8.662;2022-09-03T21:46:48;21.00;78.30
40702;DHT22;26387;50.114;8.662;2022-09-03T21:49:18;21.00;78.70
40702;DHT22;26387;50.114;8.662;2022-09-03T21:51:56;21.00;78.90
40702;DHT22;26387;50.114;8.662;2022-09-03T21:54:24;21.00;79.00
40702;DHT22;26387;50.114;8.662;2022-09-03T22:02:22;20.90;79.40
40702;DHT22;26387;50.114;8.662;2022-09-03T22:04:48;20.90;79.70
40702;DHT22;26387;50.114;8.662;2022-09-03T22:07:35;20.90;79.80
40702;DHT22;26387;50.114;8.662;2022-09-03T22:12:30;20.80;80.50
40702;DHT22;26387;50.114;8.662;2022-09-03T22:14:58;20.80;80.50
40702;DHT22;26387;50.114;8.662;2022-09-03T22:19:49;20.80;80.70
40702;DHT22;26387;50.114;8.662;2022-09-03T22:22:21;20.80;80.80
40702;DHT22;26387;50.114;8.662;2022-09-03T22:27:37;20.70;81.10
40702;DHT22;26387;50.114;8.662;2022-09-03T22:30:09;20.70;81.20
40702;DHT22;26387;50.114;8.662;2022-09-03T22:32:44;20.70;81.30
40702;DHT22;26387;50.114;8.662;2022-09-03T22:37:43;20.70;81.60
40702;DHT22;26387;50.114;8.662;2022-09-03T22:47:54;20.60;82.00
40702;DHT22;26387;50.114;8.662;2022-09-03T22:50:22;20.60;82.00
40702;DHT22;26387;50.114;8.662;2022-09-03T22:55:33;20.60;82.30
40702;DHT22;26387;50.114;8.662;2022-09-03T22:58:13;20.60;82.50
40702;DHT22;26387;50.114;8.662;2022-09-03T23:00:45;20.60;82.80
40702;DHT22;26387;50.114;8.662;2022-09-03T23:03:18;20.60;82.90
40702;DHT22;26387;50.114;8.662;2022-09-03T23:06:03;20.60;83.00
40702;DHT22;26387;50.114;8.662;2022-09-03T23:08:32;20.50;83.20
40702;DHT22;26387;50.114;8.662;2022-09-03T23:11:05;20.60;83.20
40702;DHT22;26387;50.114;8.662;2022-09-03T23:13:47;20.50;83.30
40702;DHT22;26387;50.114;8.662;2022-09-03T23:18:43;20.50;83.40
40702;DHT22;26387;50.114;8.662;2022-09-03T23:21:20;20.50;83.70
40702;DHT22;26387;50.114;8.662;2022-09-03T23:26:40;20.40;84.50
40702;DHT22;26387;50.114;8.662;2022-09-03T23:31:51;20.30;84.70
40702;DHT22;26387;50.114;8.662;2022-09-03T23:34:17;20.30;84.80
40702;DHT22;26387;50.114;8.662;2022-09-03T23:36:56;20.40;84.80
40702;DHT22;26387;50.114;8.662;2022-09-03T23:49:46;20.30;84.80
40702;DHT22;26387;50.114;8.662;2022-09-03T23:52:26;20.30;85.00
40702;DHT22;26387;50.114;8.662;2022-09-03T23:54:57;20.20;85.20
40702;DHT22;26387;50.114;8.662;2022-09-03T23:57:40;20.20;85.60
